Venice, LA (70091)

12:02 AM CDT on July 24, 2014 (GMT -0500)
Rlc Heliport (KLABOOTH3) Elev 0 ft | 29.29 °N, 89.37 °W | Change Station

Current weather conditions updated 14 minutes ago

Partly Cloudy
Partly Cloudy
78.1 °F
Feels Like 80 °F
N
2.2
Wind Variable Wind from ESE

Today is forecast to be nearly the same temperature as yesterday. Morning showers and thunderstorms.

Today
High -- | Low -- °F
--% Chance of Precip.
Yesterday
High -- | Low -- °F
Precip. -- in
6:12 AM 7:53 PM
Waning Crescent, 7% visible
Pressure 30.00 in
Visibility 10.0 miles
Clouds Mostly Cloudy 2500 ft
Mostly Cloudy 3200 ft
Mostly Cloudy 3900 ft
Heat Index 80 °F
Dew Point 71 °F
Humidity 80%
Rainfall 2.87 in
Snow Depth Not available.
UV 0 out of 12
Pollen 2.00 out of 12
Air Quality Not available.
Flu Activity Not available.
METAR KDLP 240455Z AUTO 22006KT 10SM BKN025 BKN032 BKN039 28/24 A3000 RMK A01

More Conditions Fewer Conditions

Pressure 30.00 in
Visibility 10.0 miles
Clouds Mostly Cloudy 2500 ft
Mostly Cloudy 3200 ft
Mostly Cloudy 3900 ft
Heat Index 80 °F
Dew Point 71 °F
Humidity 80%
Rainfall 2.87 in
Snow Depth Not available.
UV 0 out of 12
Pollen 2.00 out of 12
Air Quality Not available.
Flu Activity Not available.
METAR KDLP 240455Z AUTO 22006KT 10SM BKN025 BKN032 BKN039 28/24 A3000 RMK A01

More Conditions Fewer Conditions

10-Day Weather Forecast

Almanac

Astronomy

Jul. 24, 2014 Rise Set
Actual Time 6:12 AM CDT 7:53 PM CDT
Civil Twilight 5:46 AM CDT 8:19 PM CDT
Nautical Twilight 5:15 AM CDT 8:51 PM CDT
Astronomical Twilight 4:42 AM CDT 9:24 PM CDT
Moon 4:19 AM CDT 6:11 PM CDT
Length of Visible Light 14h 33m
Length of Day
13h 41m
Tomorrow will be 1m 7s shorter.
Waning Crescent, 7% of the Moon is Illuminated
Today
Waning Crescent
Jul 26
New
Aug 3
First Quarter
Aug 10
Full
Aug 17
Last Quarter

Today's Extremes

State Highs State Lows

Community

WunderPhotos

Upload Photos

1,736,911 photos uploaded!

Nearby

Snow Depth

Station Depth Elevation
No new snow has been reported.

Earthquake Activity

City Distance Mag. Time & Date
No recent earthquake activity has been reported nearby.
Minimum magnitude displayed is 2.5.

Coastal Water Temperatures

Place Temperature
Pilot's Station East, SW Pass, LA 84.9 °F
Grand Isle, LA 84.0 °F
New Canal, LA 82.0 °F

Nearby Weather Stations

Station Location Temp. Heat Index Dew Point Humidity Wind Precip. Elev Updated Type
Rlc Heliport, Boothville-Venice, LA 78.1 °F 80 °F 71 °F 80% ESE  at  2.2 mph - / hr 0 ft 11:48 PM CDT Normal

Show More Stations Show Fewer Stations